createdAt,value
2022-08-25T00:00:07.311Z,0.4
2022-08-25T00:02:13.639Z,0.3
2022-08-25T00:04:19.798Z,0.3
2022-08-25T00:06:25.993Z,0.3
2022-08-25T00:08:32.240Z,0.4
2022-08-25T00:10:38.471Z,0.3
2022-08-25T00:12:47.478Z,0.3
2022-08-25T00:14:53.719Z,0.3
2022-08-25T00:16:59.953Z,0.3
2022-08-25T00:21:31.711Z,0.3
2022-08-25T00:23:37.947Z,0.3
2022-08-25T00:25:46.921Z,0.3
2022-08-25T00:27:53.200Z,0.3
2022-08-25T00:29:59.571Z,0.3
2022-08-25T00:32:05.657Z,0.3
2022-08-25T00:34:11.869Z,0.3
2022-08-25T00:36:18.125Z,0.2
2022-08-25T00:38:24.365Z,0.4
2022-08-25T00:42:39.588Z,0.2
2022-08-25T00:46:52.058Z,0.4
2022-08-25T00:55:19.763Z,0.2
2022-08-25T01:07:58.547Z,0.3
2022-08-25T01:14:18.682Z,0.3
2022-08-25T01:15:23.254Z,0.2
2022-08-25T01:17:29.462Z,0.3
2022-08-25T01:19:35.692Z,0.3
2022-08-25T01:21:41.918Z,0.2
2022-08-25T01:23:50.923Z,0.3
2022-08-25T01:25:57.146Z,0.2
2022-08-25T01:28:03.504Z,0.3
2022-08-25T01:30:09.660Z,0.4
2022-08-25T01:32:15.892Z,0.1
2022-08-25T01:34:22.132Z,0.3
2022-08-25T01:36:28.395Z,0.3
2022-08-25T01:38:37.391Z,0.4
2022-08-25T01:40:43.656Z,0.3
2022-08-25T01:42:49.894Z,0.2
2022-08-25T01:44:56.127Z,0.4
2022-08-25T01:47:02.414Z,0.4
2022-08-25T01:49:08.623Z,0.4
2022-08-25T01:51:14.892Z,0.3
2022-08-25T01:53:23.885Z,0.4
2022-08-25T01:55:30.148Z,0.3
2022-08-25T01:59:42.633Z,0.3
2022-08-25T02:01:48.945Z,0.4
2022-08-25T02:03:55.166Z,0.4
2022-08-25T02:06:01.418Z,0.4
2022-08-25T02:08:10.422Z,0.3
2022-08-25T02:10:16.673Z,0.3
2022-08-25T02:12:22.938Z,0.2
2022-08-25T02:13:31.233Z,0.3
2022-08-25T02:17:39.919Z,0.4
2022-08-25T02:21:55.176Z,0.3
2022-08-25T02:24:01.454Z,0.4
2022-08-25T02:26:07.725Z,0.4
2022-08-25T02:28:13.990Z,0.3
2022-08-25T02:30:20.256Z,0.5
2022-08-25T02:32:26.537Z,0.4
2022-08-25T02:34:32.766Z,0.4
2022-08-25T02:36:41.807Z,0.4
2022-08-25T02:38:48.076Z,0.3
2022-08-25T02:40:54.315Z,0.5
2022-08-25T02:43:00.601Z,0.4
2022-08-25T02:45:06.861Z,0.4
2022-08-25T02:47:13.150Z,0.3
2022-08-25T02:49:19.396Z,0.4
2022-08-25T02:51:28.408Z,0.3
2022-08-25T02:53:34.697Z,0.3
2022-08-25T02:55:40.956Z,0.4
2022-08-25T02:57:47.226Z,0.4
2022-08-25T02:59:53.469Z,0.4
2022-08-25T03:01:59.767Z,0.2
2022-08-25T03:04:06.033Z,0.3
2022-08-25T03:06:15.057Z,0.4
2022-08-25T03:08:21.322Z,0.4
2022-08-25T03:10:27.589Z,0.4
2022-08-25T03:11:32.106Z,0.4
2022-08-25T03:13:38.375Z,0.3
2022-08-25T03:15:44.640Z,0.3
2022-08-25T03:17:50.935Z,0.4
2022-08-25T03:20:01.525Z,0.4
2022-08-25T03:24:13.995Z,0.4
2022-08-25T03:28:29.903Z,0.4
2022-08-25T03:30:32.791Z,0.3
2022-08-25T03:32:39.063Z,0.4
2022-08-25T03:34:48.044Z,0.5
2022-08-25T03:36:54.324Z,0.4
2022-08-25T03:39:00.628Z,0.4
2022-08-25T03:41:06.888Z,0.5
2022-08-25T03:43:13.376Z,0.4
2022-08-25T03:47:25.723Z,0.4
2022-08-25T03:51:41.030Z,0.5
2022-08-25T03:53:47.315Z,0.4
2022-08-25T03:55:53.608Z,0.5
2022-08-25T03:58:00.009Z,0.4
2022-08-25T04:00:06.228Z,0.3
2022-08-25T04:02:12.469Z,0.5
2022-08-25T04:04:21.421Z,0.4
2022-08-25T04:06:27.714Z,0.3
2022-08-25T04:15:12.522Z,0.4
2022-08-25T04:17:21.554Z,0.3
2022-08-25T04:19:27.842Z,0.4
2022-08-25T04:21:34.153Z,0.5
2022-08-25T04:23:40.404Z,0.3
2022-08-25T04:25:46.678Z,0.4
2022-08-25T04:27:52.966Z,0.3
2022-08-25T04:29:59.246Z,0.5
2022-08-25T04:32:08.370Z,0.4
2022-08-25T04:34:29.664Z,0.4
2022-08-25T04:36:20.857Z,0.5
2022-08-25T04:38:27.146Z,0.6
2022-08-25T04:40:33.569Z,0.4
2022-08-25T04:44:46.019Z,0.3
2022-08-25T04:46:55.056Z,0.5
2022-08-25T04:49:01.383Z,0.3
2022-08-25T04:57:26.617Z,0.5
2022-08-25T04:59:32.894Z,0.4
2022-08-25T05:01:41.946Z,0.5
2022-08-25T05:05:54.539Z,0.4
2022-08-25T05:11:11.771Z,0.3
2022-08-25T05:15:27.125Z,0.5
2022-08-25T05:17:33.409Z,0.4
2022-08-25T05:19:39.690Z,0.5
2022-08-25T05:21:46.006Z,0.5
2022-08-25T05:23:52.375Z,0.4
2022-08-25T05:25:58.672Z,0.5
2022-08-25T05:28:05.154Z,0.4
2022-08-25T05:30:13.985Z,0.3
2022-08-25T05:32:20.267Z,0.2
2022-08-25T05:34:26.572Z,0.4
2022-08-25T05:36:32.867Z,0.5
2022-08-25T05:38:39.150Z,0.6
2022-08-25T05:42:51.690Z,0.3
2022-08-25T05:47:06.970Z,0.3
2022-08-25T05:49:13.250Z,0.4
2022-08-25T05:51:19.521Z,0.4
2022-08-25T05:55:32.073Z,0.5
2022-08-25T05:59:47.416Z,0.4
2022-08-25T06:01:53.682Z,0.4
2022-08-25T06:04:00.050Z,0.4
2022-08-25T06:05:04.510Z,0.3
2022-08-25T06:07:10.779Z,0.3
2022-08-25T06:09:17.027Z,0.4
2022-08-25T06:11:23.327Z,0.5
2022-08-25T06:13:32.333Z,0.4
2022-08-25T06:15:38.619Z,0.4
2022-08-25T06:19:51.177Z,0.3
2022-08-25T06:24:03.739Z,0.3
2022-08-25T06:30:28.443Z,0.3
2022-08-25T06:32:31.508Z,0.4
2022-08-25T06:34:37.774Z,0.3
2022-08-25T06:36:44.012Z,0.4
2022-08-25T06:38:50.280Z,0.4
2022-08-25T06:40:56.531Z,0.3
2022-08-25T06:43:05.549Z,0.3
2022-08-25T06:45:11.767Z,0.4
2022-08-25T06:47:18.148Z,0.4
2022-08-25T06:55:42.952Z,0.2
2022-08-25T06:57:51.945Z,0.2
2022-08-25T06:59:58.166Z,0.2
2022-08-25T07:02:04.440Z,0.1
2022-08-25T07:03:09.000Z,0.2
2022-08-25T07:05:26.957Z,0.2
2022-08-25T07:07:21.280Z,0.1
2022-08-25T07:09:27.497Z,0.2
2022-08-25T07:13:42.679Z,0.1
2022-08-25T07:15:48.953Z,0.2
2022-08-25T07:20:01.293Z,0.2
2022-08-25T07:22:07.486Z,0.1
2022-08-25T07:24:13.683Z,0.3
2022-08-25T07:28:28.854Z,0.2
2022-08-25T07:30:35.041Z,0.1
2022-08-25T07:32:43.027Z,0.1
2022-08-25T07:34:52.157Z,0.2
2022-08-25T07:36:53.615Z,0.2
2022-08-25T07:38:59.767Z,0
2022-08-25T07:41:08.671Z,0.1
2022-08-25T07:43:14.860Z,0.2
2022-08-25T07:45:21.179Z,0.1
2022-08-25T07:49:36.214Z,0.1
2022-08-25T07:51:38.898Z,0.1
2022-08-25T07:53:44.857Z,0.1
2022-08-25T07:55:53.567Z,0.1
2022-08-25T07:57:59.389Z,0.1
2022-08-25T08:04:36.059Z,-1
2022-08-25T08:06:41.914Z,0.1
2022-08-25T08:11:04.562Z,0.1
2022-08-25T08:13:02.232Z,0
2022-08-25T08:17:13.579Z,0
2022-08-25T08:19:19.367Z,0.1
2022-08-25T08:21:25.108Z,0
2022-08-25T08:23:33.570Z,0
2022-08-25T08:25:39.307Z,0
2022-08-25T08:27:45.032Z,0
2022-08-25T08:29:50.736Z,0
2022-08-25T08:31:56.433Z,0.1
2022-08-25T08:34:02.133Z,0
2022-08-25T08:36:07.809Z,0
2022-08-25T08:38:20.846Z,0.1
2022-08-25T08:40:21.995Z,0
2022-08-25T08:44:33.188Z,0
2022-08-25T08:46:38.968Z,0
2022-08-25T08:48:44.509Z,0
2022-08-25T08:57:09.660Z,0
2022-08-25T08:58:13.843Z,0
2022-08-25T09:00:19.449Z,0
2022-08-25T09:02:39.485Z,0
2022-08-25T09:04:30.681Z,0
2022-08-25T09:06:39.022Z,0
2022-08-25T09:08:44.864Z,0
2022-08-25T09:10:50.250Z,0
2022-08-25T09:12:55.836Z,0
2022-08-25T09:15:01.408Z,0
2022-08-25T09:17:07.072Z,0
2022-08-25T09:19:12.624Z,0
2022-08-25T09:21:20.971Z,0
2022-08-25T09:23:28.102Z,0
2022-08-25T09:25:52.544Z,0
2022-08-25T09:27:39.250Z,0
2022-08-25T09:29:44.834Z,0
2022-08-25T09:31:50.508Z,0
2022-08-25T09:33:56.046Z,0
2022-08-25T09:36:04.625Z,0
2022-08-25T09:38:09.955Z,0
2022-08-25T09:40:15.680Z,0
2022-08-25T09:42:23.809Z,0
2022-08-25T09:44:26.710Z,0
2022-08-25T09:46:32.323Z,0
2022-08-25T09:50:46.803Z,0
2022-08-25T09:52:53.446Z,0
2022-08-25T09:54:57.213Z,0
2022-08-25T09:56:01.331Z,0
2022-08-25T09:58:09.381Z,0
2022-08-25T10:00:12.346Z,0
2022-08-25T10:02:17.861Z,0
2022-08-25T10:04:26.096Z,0
2022-08-25T10:06:31.566Z,0
2022-08-25T10:08:37.022Z,0
2022-08-25T10:10:42.471Z,0
2022-08-25T10:12:51.158Z,0
2022-08-25T10:14:54.557Z,0
2022-08-25T10:16:58.821Z,0
2022-08-25T10:19:07.181Z,0
2022-08-25T10:21:12.468Z,0
2022-08-25T10:25:23.306Z,0
2022-08-25T10:27:29.185Z,0
2022-08-25T10:29:34.198Z,0
2022-08-25T10:31:41.321Z,0
2022-08-25T10:33:50.321Z,0
2022-08-25T10:35:53.277Z,0
2022-08-25T10:37:58.708Z,0
2022-08-25T10:40:04.169Z,0
2022-08-25T10:42:09.544Z,0
2022-08-25T10:44:14.849Z,0
2022-08-25T10:46:20.356Z,0
2022-08-25T10:48:28.419Z,0
2022-08-25T10:50:33.815Z,0
2022-08-25T10:52:39.097Z,0
2022-08-25T10:53:43.217Z,0
2022-08-25T10:55:48.573Z,0
2022-08-25T10:57:53.972Z,0
2022-08-25T10:59:59.400Z,0
2022-08-25T11:02:07.346Z,0
2022-08-25T11:04:12.622Z,0
2022-08-25T11:06:17.934Z,0
2022-08-25T11:08:23.240Z,0
2022-08-25T11:10:28.603Z,0
2022-08-25T11:12:33.988Z,0
2022-08-25T11:14:39.390Z,0
2022-08-25T11:16:48.602Z,0
2022-08-25T11:18:52.779Z,0
2022-08-25T11:20:58.186Z,0
2022-08-25T11:23:03.567Z,0
2022-08-25T11:25:08.922Z,0
2022-08-25T11:27:14.191Z,0
2022-08-25T11:29:19.476Z,0
2022-08-25T11:31:42.090Z,0
2022-08-25T11:33:32.647Z,0
2022-08-25T11:37:43.270Z,0
2022-08-25T11:39:48.571Z,0
2022-08-25T11:41:53.805Z,0
2022-08-25T11:43:59.072Z,0
2022-08-25T11:46:07.051Z,0
2022-08-25T11:54:41.763Z,0
2022-08-25T11:56:47.023Z,0
2022-08-25T11:58:54.770Z,0
2022-08-25T12:01:00.009Z,0
2022-08-25T12:03:05.248Z,0
2022-08-25T12:05:10.662Z,0
2022-08-25T12:07:15.747Z,0
2022-08-25T12:09:20.938Z,0
2022-08-25T12:11:26.286Z,0
2022-08-25T12:13:34.201Z,0
2022-08-25T12:17:44.657Z,0
2022-08-25T12:19:49.895Z,0
2022-08-25T12:21:55.111Z,0
2022-08-25T12:24:00.355Z,0
2022-08-25T12:26:05.587Z,0
2022-08-25T12:28:13.504Z,0
2022-08-25T12:30:21.086Z,0
2022-08-25T12:32:23.935Z,0
2022-08-25T12:36:34.428Z,0
2022-08-25T12:38:43.180Z,0
2022-08-25T12:40:45.408Z,0
2022-08-25T12:42:52.863Z,0
2022-08-25T12:44:58.085Z,0
2022-08-25T12:47:03.365Z,0
2022-08-25T12:56:31.038Z,0
2022-08-25T13:00:41.625Z,0
2022-08-25T13:04:52.147Z,0
2022-08-25T13:09:02.657Z,0
2022-08-25T13:11:10.687Z,0
2022-08-25T13:15:21.100Z,0
2022-08-25T13:19:35.112Z,0
2022-08-25T13:23:42.186Z,0
2022-08-25T13:25:50.128Z,0
2022-08-25T13:30:03.741Z,0
2022-08-25T13:32:09.674Z,0
2022-08-25T13:34:11.282Z,0
2022-08-25T13:36:16.505Z,0
2022-08-25T13:38:21.791Z,0
2022-08-25T13:40:29.928Z,0
2022-08-25T13:42:35.176Z,0
2022-08-25T13:44:40.580Z,0
2022-08-25T13:45:44.743Z,0
2022-08-25T13:47:50.107Z,0
2022-08-25T13:49:57.685Z,0
2022-08-25T13:52:00.972Z,0
2022-08-25T13:54:08.954Z,0
2022-08-25T13:56:14.381Z,0
2022-08-25T13:58:24.606Z,0
2022-08-25T14:00:25.223Z,0
2022-08-25T14:02:30.724Z,0
2022-08-25T14:04:36.419Z,0
2022-08-25T14:06:41.546Z,0
2022-08-25T14:08:49.750Z,0
2022-08-25T14:10:55.221Z,0
2022-08-25T14:13:00.733Z,0
2022-08-25T14:15:06.149Z,0
2022-08-25T14:17:28.675Z,0
2022-08-25T14:19:20.257Z,0
2022-08-25T14:21:22.519Z,0
2022-08-25T14:23:30.754Z,0
2022-08-25T14:27:56.883Z,0
2022-08-25T14:36:03.503Z,0
2022-08-25T14:38:11.898Z,0
2022-08-25T14:49:43.220Z,0
2022-08-25T14:51:51.432Z,0
2022-08-25T14:56:09.335Z,0
2022-08-25T15:02:19.887Z,0
2022-08-25T15:04:24.499Z,0
2022-08-25T15:06:32.589Z,0
2022-08-25T15:08:38.085Z,0
2022-08-25T15:10:43.580Z,0
2022-08-25T15:12:53.863Z,0
2022-08-25T15:14:54.532Z,0
2022-08-25T15:17:00.093Z,0
2022-08-25T15:25:26.253Z,0
2022-08-25T15:27:31.717Z,0
2022-08-25T15:29:37.211Z,0
2022-08-25T15:31:42.745Z,0
2022-08-25T15:38:02.013Z,0
2022-08-25T15:40:07.605Z,0
2022-08-25T15:42:32.358Z,0
2022-08-25T15:46:47.202Z,0
2022-08-25T15:53:02.656Z,0
2022-08-25T15:57:24.070Z,0
2022-08-25T15:59:19.236Z,0
2022-08-25T16:01:24.979Z,0
2022-08-25T16:03:33.038Z,0
2022-08-25T16:05:38.577Z,0
2022-08-25T16:07:44.093Z,0
2022-08-25T16:09:49.649Z,0
2022-08-25T16:11:55.748Z,0
2022-08-25T16:14:00.742Z,0
2022-08-25T16:16:06.365Z,0
2022-08-25T16:18:14.655Z,0
2022-08-25T16:20:20.232Z,0
2022-08-25T16:22:26.057Z,0
2022-08-25T16:24:31.414Z,0
2022-08-25T16:26:37.020Z,0
2022-08-25T16:28:43.754Z,0
2022-08-25T16:30:52.534Z,0
2022-08-25T16:32:56.684Z,0
2022-08-25T16:35:02.313Z,0
2022-08-25T16:37:07.965Z,0
2022-08-25T16:38:12.278Z,0
2022-08-25T16:40:17.896Z,0
2022-08-25T16:42:23.517Z,0.1
2022-08-25T16:44:29.196Z,0
2022-08-25T16:46:37.677Z,0.1
2022-08-25T16:48:43.305Z,0
2022-08-25T16:50:49.002Z,0
2022-08-25T16:52:55.826Z,0
2022-08-25T16:55:00.460Z,0
2022-08-25T16:57:06.177Z,0
2022-08-25T16:59:11.941Z,0.1
2022-08-25T17:01:20.426Z,0
2022-08-25T17:03:26.114Z,0
2022-08-25T17:05:31.863Z,0.1
2022-08-25T17:07:37.644Z,0
2022-08-25T17:09:43.404Z,0
2022-08-25T17:11:49.163Z,0
2022-08-25T17:13:54.938Z,0
2022-08-25T17:16:03.503Z,0
2022-08-25T17:18:09.216Z,0.1
2022-08-25T17:20:15.020Z,0
2022-08-25T17:22:20.765Z,0
2022-08-25T17:24:29.254Z,0
2022-08-25T17:26:32.385Z,0
2022-08-25T17:28:38.177Z,0.1
2022-08-25T17:30:46.692Z,0.1
2022-08-25T17:32:52.508Z,0
2022-08-25T17:34:58.297Z,0
2022-08-25T17:36:02.590Z,0.1
2022-08-25T17:38:08.734Z,0
2022-08-25T17:42:20.017Z,0
2022-08-25T17:44:28.609Z,0.1
2022-08-25T17:46:34.391Z,0.1
2022-08-25T17:48:43.916Z,0.1
2022-08-25T17:50:46.028Z,0.1
2022-08-25T17:52:51.880Z,0.1
2022-08-25T17:54:58.873Z,0.1
2022-08-25T17:57:03.588Z,0
2022-08-25T17:59:12.165Z,0.1
2022-08-25T18:01:18.062Z,0.1
2022-08-25T18:03:24.028Z,0
2022-08-25T18:05:29.779Z,0.1
2022-08-25T18:07:35.658Z,0.1
2022-08-25T18:09:41.623Z,0.1
2022-08-25T18:11:47.412Z,0.1
2022-08-25T18:13:56.013Z,0.1
2022-08-25T18:16:01.905Z,0.1
2022-08-25T18:18:08.099Z,0.1
2022-08-25T18:20:13.747Z,0.2
2022-08-25T18:22:19.682Z,0.2
2022-08-25T18:24:25.610Z,0.1
2022-08-25T18:26:31.540Z,0.2
2022-08-25T18:28:40.256Z,0.1
2022-08-25T18:30:47.155Z,0.1
2022-08-25T18:36:02.581Z,0.1
2022-08-25T18:38:08.546Z,0.1
2022-08-25T18:42:23.420Z,0.1
2022-08-25T18:44:29.393Z,0.1
2022-08-25T18:48:41.656Z,0.1
2022-08-25T18:50:47.594Z,0.1
2022-08-25T18:52:55.031Z,0
2022-08-25T18:54:59.778Z,0.1
2022-08-25T18:57:08.964Z,0.2
2022-08-25T18:59:14.736Z,0.2
2022-08-25T19:01:20.928Z,0.1
2022-08-25T19:03:27.004Z,0.2
2022-08-25T19:05:33.094Z,0.2
2022-08-25T19:11:54.610Z,0.1
2022-08-25T19:14:00.043Z,0.1
2022-08-25T19:16:06.189Z,0.1
2022-08-25T19:18:12.464Z,0.2
2022-08-25T19:20:18.271Z,0.2
2022-08-25T19:22:40.633Z,0
2022-08-25T19:24:30.533Z,0.2
2022-08-25T19:26:39.292Z,0.1
2022-08-25T19:28:45.880Z,0.2
2022-08-25T19:30:51.505Z,0.1
2022-08-25T19:35:22.414Z,0.1
2022-08-25T19:37:28.494Z,0.1
2022-08-25T19:39:39.232Z,0.1
2022-08-25T19:41:43.481Z,0.2
2022-08-25T19:43:55.755Z,0.2
2022-08-25T19:48:01.966Z,0.2
2022-08-25T19:50:07.865Z,0.2
2022-08-25T19:52:13.943Z,0.1
2022-08-25T19:56:28.938Z,0.2
2022-08-25T19:58:35.057Z,0.2
2022-08-25T20:02:47.424Z,0.2
2022-08-25T20:04:53.409Z,0
2022-08-25T20:07:00.198Z,0.2
2022-08-25T20:09:08.431Z,0.2
2022-08-25T20:13:20.686Z,0.2
2022-08-25T20:15:26.785Z,0.1
2022-08-25T20:17:32.940Z,0.1
2022-08-25T20:19:39.077Z,0
2022-08-25T20:21:45.193Z,0.1
2022-08-25T20:23:54.123Z,0.2
2022-08-25T20:31:17.030Z,0.2
2022-08-25T20:33:23.565Z,0.2
2022-08-25T20:35:29.290Z,0.2
2022-08-25T20:37:38.204Z,0.1
2022-08-25T20:39:44.426Z,0.2
2022-08-25T20:41:50.496Z,0
2022-08-25T20:43:56.634Z,0.1
2022-08-25T20:46:02.844Z,0.1
2022-08-25T20:48:08.998Z,0
2022-08-25T20:54:30.189Z,0.2
2022-08-25T20:56:36.343Z,0.2
2022-08-25T20:58:42.510Z,0.2
2022-08-25T21:00:48.668Z,0.1
2022-08-25T21:02:54.987Z,0.2
2022-08-25T21:05:00.999Z,0.2
2022-08-25T21:07:09.944Z,0.1
2022-08-25T21:09:16.255Z,0.1
2022-08-25T21:11:22.258Z,0.1
2022-08-25T21:13:28.499Z,0.2
2022-08-25T21:15:35.014Z,0.1
2022-08-25T21:17:40.785Z,0.1
2022-08-25T21:21:59.621Z,0
2022-08-25T21:24:03.012Z,0.2
2022-08-25T21:26:08.240Z,0.2
2022-08-25T21:27:14.243Z,0.1
2022-08-25T21:29:20.431Z,0.1
2022-08-25T21:31:26.580Z,0.2
2022-08-25T21:33:32.723Z,0.2
2022-08-25T21:35:42.888Z,0.2
2022-08-25T21:37:47.864Z,0.2
2022-08-25T21:39:54.163Z,0.1
2022-08-25T21:42:00.609Z,0.2
2022-08-25T21:46:12.632Z,0.2
2022-08-25T21:48:18.788Z,0.2
2022-08-25T22:07:20.048Z,0.2
2022-08-25T22:09:26.267Z,0.2
2022-08-25T22:11:36.078Z,0.1
2022-08-25T22:13:41.174Z,0.2
2022-08-25T22:15:44.863Z,0.2
2022-08-25T22:17:51.067Z,0.2
2022-08-25T22:20:00.027Z,0.2
2022-08-25T22:22:06.221Z,0.2
2022-08-25T22:24:12.441Z,0.2
2022-08-25T22:27:23.510Z,0.2
2022-08-25T22:29:29.335Z,0.2
2022-08-25T22:31:35.559Z,0.2
2022-08-25T22:35:54.294Z,0.2
2022-08-25T22:40:03.174Z,0.2
2022-08-25T22:44:15.555Z,0.2
2022-08-25T22:46:21.843Z,0.2
2022-08-25T22:48:30.756Z,0.2
2022-08-25T22:50:36.960Z,0.2
2022-08-25T22:54:49.400Z,0.2
2022-08-25T22:56:55.631Z,0.2
2022-08-25T22:59:01.853Z,0.3
2022-08-25T23:01:08.100Z,0.2
2022-08-25T23:03:17.083Z,0.2
2022-08-25T23:05:23.252Z,0.3
2022-08-25T23:07:29.479Z,0.3
2022-08-25T23:09:39.758Z,0.2
2022-08-25T23:11:41.907Z,0.2
2022-08-25T23:18:03.375Z,0.2
2022-08-25T23:26:42.820Z,0.2
2022-08-25T23:28:48.274Z,0.3
2022-08-25T23:30:59.386Z,0.3
2022-08-25T23:33:03.591Z,0.3
2022-08-25T23:39:22.311Z,0.3
2022-08-25T23:41:28.396Z,0.3
2022-08-25T23:43:34.641Z,0.2
2022-08-25T23:52:02.304Z,0.2
2022-08-25T23:54:09.191Z,0.3
2022-08-25T23:56:14.753Z,0.3
2022-08-25T23:58:20.956Z,0.3
